createdAt,value
2022-08-21T00:00:04.737Z,287.90
2022-08-21T00:01:04.755Z,243.50
2022-08-21T00:02:04.843Z,298.60
2022-08-21T00:03:04.720Z,358.90
2022-08-21T00:04:04.757Z,260.30
2022-08-21T00:05:04.696Z,627.40
2022-08-21T00:06:04.674Z,260.00
2022-08-21T00:07:04.671Z,442.60
2022-08-21T00:08:04.661Z,518.00
2022-08-21T00:09:06.760Z,563.20
2022-08-21T00:10:04.682Z,405.20
2022-08-21T00:11:04.610Z,428.10
2022-08-21T00:12:04.625Z,574.60
2022-08-21T00:13:04.600Z,318.60
2022-08-21T00:14:04.638Z,279.40
2022-08-21T00:15:04.577Z,494.00
2022-08-21T00:16:04.567Z,338.10
2022-08-21T00:17:04.555Z,401.80
2022-08-21T00:18:04.535Z,486.30
2022-08-21T00:19:04.575Z,332.80
2022-08-21T00:20:04.529Z,442.30
2022-08-21T00:21:04.490Z,526.30
2022-08-21T00:22:04.471Z,469.50
2022-08-21T00:23:04.467Z,399.20
2022-08-21T00:24:04.547Z,374.80
2022-08-21T00:25:04.456Z,289.40
2022-08-21T00:26:04.455Z,407.90
2022-08-21T00:27:04.438Z,350.40
2022-08-21T00:28:04.418Z,396.80
2022-08-21T00:29:04.452Z,560.10
2022-08-21T00:30:04.410Z,495.90
2022-08-21T00:31:04.404Z,500.30
2022-08-21T00:32:04.381Z,419.40
2022-08-21T00:33:04.376Z,256.60
2022-08-21T00:34:04.395Z,408.10
2022-08-21T00:35:04.333Z,495.00
2022-08-21T00:36:04.347Z,476.10
2022-08-21T00:37:04.315Z,322.00
2022-08-21T00:38:04.317Z,513.90
2022-08-21T00:39:04.331Z,349.90
2022-08-21T00:40:04.361Z,367.40
2022-08-21T00:41:36.726Z,275.70
2022-08-21T00:42:05.258Z,569.10
2022-08-21T00:43:04.239Z,330.80
2022-08-21T00:44:04.296Z,557.20
2022-08-21T00:45:04.220Z,365.80
2022-08-21T00:46:04.236Z,439.00
2022-08-21T00:47:04.206Z,552.50
2022-08-21T00:48:04.206Z,396.90
2022-08-21T00:49:04.220Z,358.80
2022-08-21T00:50:04.183Z,456.00
2022-08-21T00:51:04.155Z,473.80
2022-08-21T00:52:04.149Z,554.20
2022-08-21T00:53:04.128Z,406.40
2022-08-21T00:54:04.159Z,529.10
2022-08-21T00:55:04.109Z,550.00
2022-08-21T00:56:04.111Z,297.70
2022-08-21T00:57:04.097Z,395.50
2022-08-21T00:58:04.092Z,564.40
2022-08-21T00:59:04.104Z,350.60
2022-08-21T01:00:04.068Z,339.10
2022-08-21T01:01:08.506Z,542.20
2022-08-21T01:02:05.063Z,396.80
2022-08-21T01:03:07.297Z,310.90
2022-08-21T01:04:05.051Z,333.70
2022-08-21T01:05:04.030Z,430.80
2022-08-21T01:06:03.989Z,307.60
2022-08-21T01:07:03.988Z,311.80
2022-08-21T01:08:03.978Z,317.40
2022-08-21T01:09:04.009Z,279.60
2022-08-21T01:10:03.949Z,212.00
2022-08-21T01:11:03.970Z,513.70
2022-08-21T01:12:03.938Z,467.30
2022-08-21T01:13:03.914Z,352.70
2022-08-21T01:14:03.950Z,454.60
2022-08-21T01:15:03.894Z,334.60
2022-08-21T01:16:03.888Z,461.70
2022-08-21T01:17:03.888Z,313.10
2022-08-21T01:18:03.869Z,504.00
2022-08-21T01:19:03.905Z,367.40
2022-08-21T01:20:03.846Z,506.60
2022-08-21T01:21:03.839Z,367.70
2022-08-21T01:22:03.812Z,333.30
2022-08-21T01:23:03.798Z,341.00
2022-08-21T01:24:03.829Z,280.60
2022-08-21T01:25:03.774Z,287.10
2022-08-21T01:26:03.775Z,248.50
2022-08-21T01:27:03.757Z,298.90
2022-08-21T01:28:03.759Z,426.90
2022-08-21T01:29:03.777Z,401.00
2022-08-21T01:30:06.395Z,258.90
2022-08-21T01:31:03.713Z,308.30
2022-08-21T01:32:03.706Z,247.20
2022-08-21T01:33:03.689Z,225.70
2022-08-21T01:34:03.718Z,236.90
2022-08-21T01:35:03.678Z,347.80
2022-08-21T01:36:03.677Z,436.20
2022-08-21T01:37:03.649Z,252.60
2022-08-21T01:38:03.636Z,446.70
2022-08-21T01:39:03.673Z,304.30
2022-08-21T01:40:03.731Z,254.70
2022-08-21T01:41:03.592Z,242.80
2022-08-21T01:42:03.599Z,257.00
2022-08-21T01:43:03.574Z,461.10
2022-08-21T01:44:03.626Z,418.00
2022-08-21T01:45:03.557Z,237.90
2022-08-21T01:46:03.547Z,450.20
2022-08-21T01:47:03.529Z,292.30
2022-08-21T01:48:03.521Z,457.60
2022-08-21T01:49:03.556Z,380.90
2022-08-21T01:50:03.498Z,302.60
2022-08-21T01:51:03.497Z,239.80
2022-08-21T01:52:03.485Z,399.90
2022-08-21T01:53:03.484Z,314.40
2022-08-21T01:54:03.491Z,439.40
2022-08-21T01:55:03.425Z,429.80
2022-08-21T01:56:03.420Z,428.10
2022-08-21T01:57:03.412Z,267.30
2022-08-21T01:58:03.447Z,444.40
2022-08-21T01:59:03.435Z,342.20
2022-08-21T02:00:03.397Z,423.30
2022-08-21T02:01:03.430Z,309.70
2022-08-21T02:02:03.363Z,294.80
2022-08-21T02:03:03.349Z,436.10
2022-08-21T02:04:03.376Z,432.40
2022-08-21T02:05:03.331Z,381.70
2022-08-21T02:06:03.331Z,365.70
2022-08-21T02:07:03.300Z,251.50
2022-08-21T02:08:03.299Z,176.90
2022-08-21T02:09:03.318Z,245.80
2022-08-21T02:10:03.267Z,193.30
2022-08-21T02:11:03.254Z,331.60
2022-08-21T02:12:03.248Z,228.70
2022-08-21T02:13:03.228Z,323.30
2022-08-21T02:14:03.269Z,281.30
2022-08-21T02:15:03.206Z,244.70
2022-08-21T02:16:03.197Z,247.70
2022-08-21T02:17:05.483Z,338.80
2022-08-21T02:18:04.177Z,222.80
2022-08-21T02:19:03.718Z,216.40
2022-08-21T02:20:03.156Z,190.20
2022-08-21T02:21:03.137Z,235.00
2022-08-21T02:22:03.145Z,160.30
2022-08-21T02:23:03.104Z,207.20
2022-08-21T02:24:03.151Z,187.80
2022-08-21T02:25:03.102Z,183.00
2022-08-21T02:26:03.085Z,283.80
2022-08-21T02:27:03.049Z,285.90
2022-08-21T02:28:03.054Z,250.60
2022-08-21T02:29:03.085Z,218.90
2022-08-21T02:30:03.039Z,161.50
2022-08-21T02:31:03.026Z,211.90
2022-08-21T02:32:03.027Z,173.80
2022-08-21T02:33:03.007Z,200.40
2022-08-21T02:34:03.026Z,185.70
2022-08-21T02:35:02.971Z,159.40
2022-08-21T02:36:02.962Z,239.80
2022-08-21T02:37:02.949Z,206.50
2022-08-21T02:38:02.946Z,162.40
2022-08-21T02:39:02.976Z,172.10
2022-08-21T02:40:02.967Z,217.50
2022-08-21T02:41:02.897Z,206.40
2022-08-21T02:42:02.896Z,210.10
2022-08-21T02:43:02.911Z,182.40
2022-08-21T02:44:02.910Z,158.60
2022-08-21T02:45:02.892Z,161.50
2022-08-21T02:46:02.844Z,183.60
2022-08-21T02:47:02.839Z,194.70
2022-08-21T02:48:02.834Z,169.20
2022-08-21T02:49:02.849Z,154.40
2022-08-21T02:50:02.804Z,176.50
2022-08-21T02:51:02.794Z,145.20
2022-08-21T02:52:02.792Z,182.80
2022-08-21T02:53:02.768Z,179.60
2022-08-21T02:54:02.812Z,164.70
2022-08-21T02:55:02.742Z,238.80
2022-08-21T02:56:02.739Z,175.30
2022-08-21T02:57:02.819Z,248.60
2022-08-21T02:58:02.715Z,173.70
2022-08-21T02:59:02.682Z,179.90
2022-08-21T03:00:02.726Z,151.60
2022-08-21T03:01:02.682Z,167.70
2022-08-21T03:02:02.746Z,228.90
2022-08-21T03:03:02.650Z,204.70
2022-08-21T03:04:02.656Z,176.30
2022-08-21T03:05:02.684Z,188.70
2022-08-21T03:06:02.622Z,183.20
2022-08-21T03:07:02.614Z,200.00
2022-08-21T03:08:02.599Z,176.10
2022-08-21T03:09:02.585Z,173.60
2022-08-21T03:10:02.615Z,162.60
2022-08-21T03:11:02.574Z,186.00
2022-08-21T03:12:02.551Z,135.10
2022-08-21T03:13:02.566Z,182.90
2022-08-21T03:14:02.533Z,190.70
2022-08-21T03:15:02.602Z,181.00
2022-08-21T03:16:02.525Z,143.70
2022-08-21T03:17:02.507Z,200.10
2022-08-21T03:18:02.493Z,200.20
2022-08-21T03:19:02.477Z,170.90
2022-08-21T03:20:02.543Z,197.00
2022-08-21T03:21:02.458Z,135.80
2022-08-21T03:22:02.446Z,193.20
2022-08-21T03:23:02.506Z,176.60
2022-08-21T03:24:03.610Z,202.60
2022-08-21T03:25:06.755Z,139.40
2022-08-21T03:26:02.400Z,144.50
2022-08-21T03:27:02.408Z,155.10
2022-08-21T03:28:02.372Z,192.80
2022-08-21T03:29:03.229Z,160.90
2022-08-21T03:30:02.345Z,179.20
2022-08-21T03:31:02.347Z,136.00
2022-08-21T03:32:02.375Z,164.40
2022-08-21T03:33:02.332Z,123.40
2022-08-21T03:34:02.353Z,187.80
2022-08-21T03:35:02.304Z,150.50
2022-08-21T03:36:02.337Z,184.00
2022-08-21T03:37:02.304Z,196.10
2022-08-21T03:38:02.261Z,170.60
2022-08-21T03:39:02.303Z,152.80
2022-08-21T03:40:02.324Z,139.10
2022-08-21T03:41:02.249Z,129.70
2022-08-21T03:42:02.217Z,138.70
2022-08-21T03:43:02.213Z,181.00
2022-08-21T03:44:02.255Z,148.40
2022-08-21T03:45:02.210Z,152.60
2022-08-21T03:46:02.219Z,198.80
2022-08-21T03:47:02.172Z,142.00
2022-08-21T03:48:02.161Z,137.00
2022-08-21T03:49:02.199Z,151.60
2022-08-21T03:50:02.142Z,121.50
2022-08-21T03:51:02.141Z,131.40
2022-08-21T03:52:02.105Z,152.90
2022-08-21T03:53:02.114Z,200.10
2022-08-21T03:54:02.135Z,169.90
2022-08-21T03:55:02.090Z,140.80
2022-08-21T03:56:02.062Z,157.80
2022-08-21T03:57:02.083Z,157.30
2022-08-21T03:58:02.049Z,150.00
2022-08-21T03:59:03.086Z,183.20
2022-08-21T04:00:02.030Z,174.90
2022-08-21T04:01:02.013Z,154.80
2022-08-21T04:02:02.066Z,150.00
2022-08-21T04:03:01.997Z,186.10
2022-08-21T04:04:02.031Z,162.70
2022-08-21T04:05:01.983Z,127.70
2022-08-21T04:06:01.965Z,155.90
2022-08-21T04:07:01.944Z,172.50
2022-08-21T04:08:01.945Z,182.00
2022-08-21T04:09:01.981Z,160.00
2022-08-21T04:10:01.914Z,145.20
2022-08-21T04:11:01.917Z,171.50
2022-08-21T04:12:01.899Z,182.10
2022-08-21T04:13:01.885Z,152.50
2022-08-21T04:14:01.940Z,176.50
2022-08-21T04:15:01.874Z,159.30
2022-08-21T04:16:01.853Z,148.00
2022-08-21T04:17:01.844Z,193.80
2022-08-21T04:18:01.861Z,214.10
2022-08-21T04:19:01.894Z,223.80
2022-08-21T04:20:01.816Z,216.00
2022-08-21T04:21:01.864Z,181.60
2022-08-21T04:22:01.784Z,148.30
2022-08-21T04:23:01.781Z,171.90
2022-08-21T04:24:01.794Z,185.90
2022-08-21T04:25:01.759Z,179.50
2022-08-21T04:26:01.734Z,154.00
2022-08-21T04:27:01.726Z,153.30
2022-08-21T04:28:01.719Z,139.30
2022-08-21T04:29:01.811Z,206.60
2022-08-21T04:30:01.698Z,220.10
2022-08-21T04:31:01.694Z,188.90
2022-08-21T04:32:01.657Z,216.70
2022-08-21T04:33:01.742Z,166.40
2022-08-21T04:34:01.636Z,151.00
2022-08-21T04:35:01.674Z,208.90
2022-08-21T04:36:01.613Z,215.30
2022-08-21T04:37:01.630Z,167.40
2022-08-21T04:38:01.596Z,227.00
2022-08-21T04:39:01.589Z,152.10
2022-08-21T04:40:01.662Z,174.00
2022-08-21T04:41:01.571Z,150.80
2022-08-21T04:42:01.554Z,138.50
2022-08-21T04:43:01.558Z,134.00
2022-08-21T04:44:01.589Z,184.80
2022-08-21T04:45:01.517Z,139.40
2022-08-21T04:46:01.508Z,184.20
2022-08-21T04:47:01.501Z,248.60
2022-08-21T04:48:01.489Z,169.20
2022-08-21T04:49:01.521Z,179.00
2022-08-21T04:50:01.496Z,193.90
2022-08-21T04:51:01.447Z,155.40
2022-08-21T04:52:01.451Z,253.90
2022-08-21T04:53:01.431Z,199.00
2022-08-21T04:54:01.476Z,204.60
2022-08-21T04:55:01.412Z,262.70
2022-08-21T04:56:01.394Z,215.90
2022-08-21T04:57:01.394Z,134.30
2022-08-21T04:58:01.362Z,212.70
2022-08-21T04:59:01.425Z,272.10
2022-08-21T05:00:01.356Z,176.80
2022-08-21T05:01:01.349Z,261.00
2022-08-21T05:02:01.385Z,249.40
2022-08-21T05:03:01.314Z,275.70
2022-08-21T05:04:01.286Z,270.30
2022-08-21T05:05:01.354Z,244.40
2022-08-21T05:06:01.277Z,281.90
2022-08-21T05:07:01.279Z,208.60
2022-08-21T05:08:01.249Z,204.10
2022-08-21T05:09:02.132Z,296.20
2022-08-21T05:10:01.275Z,235.30
2022-08-21T05:11:01.220Z,304.20
2022-08-21T05:12:01.206Z,201.40
2022-08-21T05:13:01.194Z,284.60
2022-08-21T05:14:01.178Z,253.60
2022-08-21T05:15:01.221Z,319.50
2022-08-21T05:16:01.171Z,313.20
2022-08-21T05:17:01.155Z,256.70
2022-08-21T05:18:01.538Z,300.50
2022-08-21T05:19:01.155Z,299.70
2022-08-21T05:20:01.126Z,278.70
2022-08-21T05:21:01.124Z,243.90
2022-08-21T05:22:01.083Z,306.50
2022-08-21T05:23:01.137Z,207.20
2022-08-21T05:24:01.108Z,210.50
2022-08-21T05:25:01.056Z,249.80
2022-08-21T05:26:01.058Z,234.20
2022-08-21T05:27:01.035Z,311.70
2022-08-21T05:28:01.028Z,230.80
2022-08-21T05:29:01.049Z,270.20
2022-08-21T05:30:00.995Z,272.50
2022-08-21T05:31:00.999Z,324.10
2022-08-21T05:32:00.969Z,254.00
2022-08-21T05:33:01.045Z,329.40
2022-08-21T05:34:00.951Z,232.00
2022-08-21T05:35:00.969Z,195.60
2022-08-21T05:36:00.919Z,260.00
2022-08-21T05:37:04.336Z,234.50
2022-08-21T05:38:01.890Z,313.80
2022-08-21T05:39:00.902Z,228.70
2022-08-21T05:40:20.534Z,243.50
2022-08-21T05:41:01.951Z,402.80
2022-08-21T05:42:00.847Z,346.90
2022-08-21T05:43:01.141Z,375.90
2022-08-21T05:44:00.936Z,243.60
2022-08-21T05:45:00.874Z,361.30
2022-08-21T05:46:00.811Z,239.40
2022-08-21T05:47:00.799Z,239.60
2022-08-21T05:48:00.788Z,248.80
2022-08-21T05:49:00.773Z,262.20
2022-08-21T05:50:00.809Z,169.00
2022-08-21T05:51:00.754Z,251.20
2022-08-21T05:52:00.771Z,345.00
2022-08-21T05:53:06.894Z,321.30
2022-08-21T05:54:01.722Z,264.10
2022-08-21T05:55:00.750Z,334.20
2022-08-21T05:56:00.689Z,240.90
2022-08-21T05:57:00.680Z,282.40
2022-08-21T05:58:00.667Z,197.70
2022-08-21T05:59:00.660Z,166.50
2022-08-21T06:00:00.699Z,162.60
2022-08-21T06:01:00.641Z,111.20
2022-08-21T06:02:05.377Z,245.30
2022-08-21T06:03:01.620Z,261.80
2022-08-21T06:04:01.569Z,240.30
2022-08-21T06:05:00.641Z,121.20
2022-08-21T06:06:00.589Z,128.30
2022-08-21T06:07:00.557Z,112.90
2022-08-21T06:08:00.540Z,236.40
2022-08-21T06:09:00.533Z,106.70
2022-08-21T06:10:00.575Z,222.70
2022-08-21T06:11:00.523Z,127.20
2022-08-21T06:12:00.508Z,190.30
2022-08-21T06:13:00.667Z,140.10
2022-08-21T06:14:00.532Z,207.80
2022-08-21T06:15:00.471Z,155.60
2022-08-21T06:16:00.466Z,228.20
2022-08-21T06:17:00.450Z,246.30
2022-08-21T06:18:00.444Z,150.10
2022-08-21T06:19:02.763Z,206.60
2022-08-21T06:20:00.425Z,213.10
2022-08-21T06:21:00.938Z,166.20
2022-08-21T06:22:00.401Z,192.40
2022-08-21T06:23:00.622Z,198.50
2022-08-21T06:24:00.430Z,211.80
2022-08-21T06:25:00.374Z,231.50
2022-08-21T06:26:00.364Z,235.50
2022-08-21T06:27:00.345Z,306.00
2022-08-21T06:28:00.322Z,270.40
2022-08-21T06:29:00.361Z,249.80
2022-08-21T06:30:00.338Z,254.80
2022-08-21T06:31:00.311Z,247.10
2022-08-21T06:32:00.283Z,227.00
2022-08-21T06:33:00.579Z,236.10
2022-08-21T06:34:00.321Z,227.90
2022-08-21T06:35:00.259Z,203.40
2022-08-21T06:36:00.257Z,175.40
2022-08-21T06:37:00.238Z,216.30
2022-08-21T06:38:00.203Z,208.50
2022-08-21T06:39:00.250Z,226.90
2022-08-21T06:40:00.286Z,220.40
2022-08-21T06:41:00.193Z,186.20
2022-08-21T06:42:00.189Z,191.00
2022-08-21T06:43:01.421Z,193.20
2022-08-21T06:44:00.172Z,179.70
2022-08-21T06:45:00.141Z,168.90
2022-08-21T06:46:00.120Z,139.10
2022-08-21T06:47:00.122Z,187.60
2022-08-21T06:48:00.120Z,178.60
2022-08-21T06:49:00.175Z,153.70
2022-08-21T06:50:00.112Z,158.60
2022-08-21T06:51:00.098Z,151.50
2022-08-21T06:52:00.040Z,156.90
2022-08-21T06:53:00.146Z,137.80
2022-08-21T06:54:00.089Z,153.90
2022-08-21T06:55:00.031Z,145.00
2022-08-21T06:55:59.997Z,127.50
2022-08-21T06:56:59.999Z,141.20
2022-08-21T06:57:59.993Z,151.30
2022-08-21T06:59:00.027Z,132.00
2022-08-21T06:59:59.979Z,122.20
2022-08-21T07:01:01.248Z,121.50
2022-08-21T07:01:59.986Z,153.90
2022-08-21T07:03:00.181Z,140.40
2022-08-21T07:03:59.975Z,160.70
2022-08-21T07:04:59.912Z,150.80
2022-08-21T07:05:59.890Z,149.20
2022-08-21T07:06:59.895Z,174.60
2022-08-21T07:07:59.880Z,153.60
2022-08-21T07:08:59.910Z,165.30
2022-08-21T07:09:59.839Z,144.70
2022-08-21T07:10:59.825Z,139.10
2022-08-21T07:11:59.831Z,109.30
2022-08-21T07:13:01.297Z,104.80
2022-08-21T07:13:59.852Z,121.10
2022-08-21T07:14:59.791Z,174.30
2022-08-21T07:16:03.933Z,94.30
2022-08-21T07:16:59.770Z,124.30
2022-08-21T07:17:59.779Z,108.50
2022-08-21T07:18:59.754Z,122.60
2022-08-21T07:19:59.780Z,116.20
2022-08-21T07:20:59.726Z,114.80
2022-08-21T07:21:59.716Z,120.90
2022-08-21T07:22:59.858Z,113.90
2022-08-21T07:23:59.689Z,116.90
2022-08-21T07:24:59.732Z,144.40
2022-08-21T07:25:59.671Z,127.40
2022-08-21T07:26:59.652Z,118.70
2022-08-21T07:27:59.655Z,116.20
2022-08-21T07:28:59.630Z,118.50
2022-08-21T07:29:59.660Z,114.90
2022-08-21T07:30:59.606Z,114.20
2022-08-21T07:31:59.608Z,103.30
2022-08-21T07:32:59.803Z,97.40
2022-08-21T07:33:59.602Z,91.40
2022-08-21T07:34:59.600Z,87.20
2022-08-21T07:35:59.555Z,88.70
2022-08-21T07:36:59.548Z,85.40
2022-08-21T07:38:00.531Z,79.20
2022-08-21T07:38:59.526Z,75.80
2022-08-21T07:39:59.643Z,76.00
2022-08-21T07:40:59.478Z,77.10
2022-08-21T07:41:59.476Z,77.30
2022-08-21T07:42:59.689Z,78.50
2022-08-21T07:43:59.468Z,79.50
2022-08-21T07:44:59.495Z,84.00
2022-08-21T07:45:59.462Z,85.00
2022-08-21T07:46:59.434Z,80.70
2022-08-21T07:47:59.421Z,78.50
2022-08-21T07:48:59.406Z,76.20
2022-08-21T07:49:59.436Z,71.80
2022-08-21T07:50:59.381Z,70.50
2022-08-21T07:51:59.390Z,69.20
2022-08-21T07:52:59.564Z,67.00
2022-08-21T07:53:59.353Z,66.50
2022-08-21T07:55:02.865Z,72.00
2022-08-21T07:56:00.325Z,72.00
2022-08-21T07:56:59.327Z,75.40
2022-08-21T07:57:59.315Z,82.70
2022-08-21T07:58:59.313Z,84.60
2022-08-21T07:59:59.339Z,88.30
2022-08-21T08:00:59.328Z,89.30
2022-08-21T08:01:59.260Z,64.10
2022-08-21T08:02:59.480Z,59.50
2022-08-21T08:03:59.274Z,64.70
2022-08-21T08:04:59.296Z,60.00
2022-08-21T08:05:59.236Z,66.20
2022-08-21T08:06:59.198Z,78.30
2022-08-21T08:07:59.215Z,82.30
2022-08-21T08:08:59.200Z,79.00
2022-08-21T08:09:59.251Z,75.90
2022-08-21T08:10:59.158Z,80.50
2022-08-21T08:11:59.156Z,70.70
2022-08-21T08:12:59.335Z,65.70
2022-08-21T08:13:59.114Z,85.90
2022-08-21T08:14:59.172Z,92.70
2022-08-21T08:15:59.110Z,91.40
2022-08-21T08:16:59.107Z,78.60
2022-08-21T08:17:59.086Z,86.40
2022-08-21T08:18:59.090Z,67.50
2022-08-21T08:19:59.108Z,62.60
2022-08-21T08:20:59.052Z,62.80
2022-08-21T08:21:59.055Z,46.20
2022-08-21T08:22:59.034Z,46.20
2022-08-21T08:23:59.021Z,40.70
2022-08-21T08:24:59.079Z,46.80
2022-08-21T08:25:59.028Z,48.20
2022-08-21T08:26:58.987Z,43.20
2022-08-21T08:27:58.991Z,39.20
2022-08-21T08:28:58.975Z,29.40
2022-08-21T08:29:58.995Z,27.80
2022-08-21T08:30:58.958Z,29.70
2022-08-21T08:31:58.930Z,28.70
2022-08-21T08:32:59.112Z,26.10
2022-08-21T08:33:58.916Z,25.80
2022-08-21T08:34:58.931Z,25.00
2022-08-21T08:36:00.491Z,23.80
2022-08-21T08:36:58.902Z,23.00
2022-08-21T08:37:58.866Z,24.30
2022-08-21T08:38:58.833Z,22.10
2022-08-21T08:39:58.951Z,22.00
2022-08-21T08:40:58.799Z,22.60
2022-08-21T08:41:58.893Z,21.80
2022-08-21T08:42:58.914Z,21.10
2022-08-21T08:43:58.780Z,22.00
2022-08-21T08:44:58.829Z,21.70
2022-08-21T08:45:58.772Z,17.40
2022-08-21T08:46:58.777Z,17.00
2022-08-21T08:47:58.746Z,17.40
2022-08-21T08:48:58.719Z,19.50
2022-08-21T08:49:58.755Z,19.00
2022-08-21T08:50:58.730Z,20.10
2022-08-21T08:51:58.726Z,20.90
2022-08-21T08:52:58.872Z,20.60
2022-08-21T08:53:58.694Z,22.90
2022-08-21T08:54:58.710Z,24.00
2022-08-21T08:55:58.654Z,20.80
2022-08-21T08:56:58.649Z,21.10
2022-08-21T08:57:58.620Z,18.40
2022-08-21T08:58:58.635Z,19.90
2022-08-21T08:59:58.661Z,19.30
2022-08-21T09:00:58.664Z,20.80
2022-08-21T09:01:58.575Z,28.10
2022-08-21T09:02:58.750Z,26.70
2022-08-21T09:03:58.576Z,28.50
2022-08-21T09:04:58.592Z,28.30
2022-08-21T09:05:58.553Z,31.70
2022-08-21T09:06:58.529Z,41.80
2022-08-21T09:07:58.551Z,48.40
2022-08-21T09:08:58.495Z,53.70
2022-08-21T09:09:58.564Z,52.90
2022-08-21T09:10:58.476Z,53.60
2022-08-21T09:11:58.456Z,80.60
2022-08-21T09:12:58.686Z,100.40
2022-08-21T09:13:58.470Z,99.20
2022-08-21T09:14:58.464Z,107.60
2022-08-21T09:15:58.441Z,85.80
2022-08-21T09:16:58.430Z,69.90
2022-08-21T09:17:58.405Z,86.30
2022-08-21T09:18:58.395Z,63.40
2022-08-21T09:19:58.434Z,58.90
2022-08-21T09:20:58.374Z,51.60
2022-08-21T09:21:58.371Z,41.90
2022-08-21T09:22:58.515Z,36.90
2022-08-21T09:23:58.350Z,41.20
2022-08-21T09:24:58.373Z,40.90
2022-08-21T09:25:58.314Z,39.40
2022-08-21T09:26:58.297Z,37.20
2022-08-21T09:27:58.314Z,31.50
2022-08-21T09:28:58.296Z,23.70
2022-08-21T09:29:58.331Z,20.30
2022-08-21T09:30:58.266Z,19.40
2022-08-21T09:31:58.254Z,20.90
2022-08-21T09:32:58.460Z,16.90
2022-08-21T09:33:58.241Z,14.00
2022-08-21T09:34:58.301Z,12.70
2022-08-21T09:35:58.225Z,12.10
2022-08-21T09:36:58.220Z,12.60
2022-08-21T09:37:58.187Z,10.80
2022-08-21T09:38:58.171Z,10.00
2022-08-21T09:39:58.271Z,11.20
2022-08-21T09:40:58.135Z,10.40
2022-08-21T09:41:58.129Z,10.60
2022-08-21T09:42:58.266Z,9.10
2022-08-21T09:43:58.138Z,10.50
2022-08-21T09:44:58.154Z,11.90
2022-08-21T09:45:58.096Z,13.90
2022-08-21T09:46:58.097Z,12.40
2022-08-21T09:47:58.069Z,11.90
2022-08-21T09:48:58.057Z,11.10
2022-08-21T09:49:58.122Z,8.20
2022-08-21T09:50:58.043Z,7.80
2022-08-21T09:51:58.061Z,9.30
2022-08-21T09:52:58.232Z,9.90
2022-08-21T09:53:58.011Z,9.00
2022-08-21T09:54:58.077Z,10.80
2022-08-21T09:55:57.987Z,11.40
2022-08-21T09:56:57.976Z,11.00
2022-08-21T09:57:57.993Z,11.30
2022-08-21T09:58:57.931Z,8.80
2022-08-21T09:59:57.968Z,7.40
2022-08-21T10:00:58.001Z,7.10
2022-08-21T10:01:57.909Z,7.20
2022-08-21T10:02:58.046Z,7.10
2022-08-21T10:03:57.906Z,7.50
2022-08-21T10:04:57.937Z,7.20
2022-08-21T10:05:57.875Z,7.00
2022-08-21T10:06:58.197Z,7.60
2022-08-21T10:07:57.868Z,8.00
2022-08-21T10:08:57.848Z,9.70
2022-08-21T10:09:57.877Z,8.70
2022-08-21T10:10:57.833Z,7.30
2022-08-21T10:11:57.777Z,7.60
2022-08-21T10:12:57.993Z,9.70
2022-08-21T10:13:57.777Z,9.50
2022-08-21T10:14:57.827Z,12.00
2022-08-21T10:15:57.772Z,10.20
2022-08-21T10:16:57.762Z,8.90
2022-08-21T10:17:57.764Z,7.30
2022-08-21T10:18:57.740Z,7.90
2022-08-21T10:19:57.760Z,9.50
2022-08-21T10:20:57.740Z,9.30
2022-08-21T10:21:57.687Z,8.60
2022-08-21T10:22:57.821Z,8.60
2022-08-21T10:23:57.657Z,8.00
2022-08-21T10:24:57.730Z,7.10
2022-08-21T10:26:13.324Z,7.30
2022-08-21T10:26:58.649Z,7.30
2022-08-21T10:27:57.658Z,8.00
2022-08-21T10:28:57.617Z,7.80
2022-08-21T10:29:57.652Z,7.30
2022-08-21T10:30:57.630Z,7.50
2022-08-21T10:31:57.573Z,7.30
2022-08-21T10:32:57.760Z,7.40
2022-08-21T10:33:57.567Z,7.50
2022-08-21T10:34:57.609Z,7.00
2022-08-21T10:35:57.545Z,7.70
2022-08-21T10:36:57.525Z,8.50
2022-08-21T10:37:57.546Z,8.50
2022-08-21T10:39:17.712Z,8.00
2022-08-21T10:39:58.636Z,8.20
2022-08-21T10:40:57.459Z,8.80
2022-08-21T10:41:59.398Z,7.80
2022-08-21T10:42:57.664Z,8.30
2022-08-21T10:43:57.453Z,10.10
2022-08-21T10:44:57.469Z,11.50
2022-08-21T10:45:57.441Z,12.60
2022-08-21T10:46:57.434Z,12.30
2022-08-21T10:47:58.303Z,12.30
2022-08-21T10:48:57.393Z,13.00
2022-08-21T10:49:57.439Z,12.40
2022-08-21T10:50:57.376Z,12.50
2022-08-21T10:51:57.381Z,13.60
2022-08-21T10:52:57.567Z,15.10
2022-08-21T10:53:57.359Z,14.20
2022-08-21T10:54:57.375Z,15.30
2022-08-21T10:55:57.337Z,14.40
2022-08-21T10:56:57.302Z,16.40
2022-08-21T10:57:57.281Z,16.70
2022-08-21T10:58:57.303Z,17.90
2022-08-21T10:59:57.274Z,18.00
2022-08-21T11:00:57.420Z,16.40
2022-08-21T11:01:57.255Z,14.60
2022-08-21T11:02:57.373Z,12.90
2022-08-21T11:03:57.233Z,14.00
2022-08-21T11:04:57.216Z,12.80
2022-08-21T11:05:57.275Z,14.00
2022-08-21T11:06:57.194Z,14.80
2022-08-21T11:07:57.347Z,9.90
2022-08-21T11:08:57.169Z,9.10
2022-08-21T11:09:57.146Z,9.50
2022-08-21T11:10:59.974Z,13.00
2022-08-21T11:11:59.389Z,14.60
2022-08-21T11:12:58.325Z,15.10
2022-08-21T11:13:57.093Z,21.00
2022-08-21T11:14:57.101Z,24.10
2022-08-21T11:15:57.143Z,18.70
2022-08-21T11:16:57.082Z,15.60
2022-08-21T11:17:57.074Z,18.50
2022-08-21T11:18:57.069Z,16.60
2022-08-21T11:19:57.051Z,16.00
2022-08-21T11:20:57.093Z,17.70
2022-08-21T11:21:57.028Z,17.40
2022-08-21T11:23:01.485Z,21.10
2022-08-21T11:23:58.003Z,18.00
2022-08-21T11:24:56.989Z,17.70
2022-08-21T11:25:57.037Z,19.80
2022-08-21T11:26:56.963Z,16.30
2022-08-21T11:27:56.991Z,14.60
2022-08-21T11:28:56.930Z,13.40
2022-08-21T11:29:56.933Z,16.10
2022-08-21T11:30:56.953Z,21.00
2022-08-21T11:31:56.917Z,21.80
2022-08-21T11:32:57.026Z,22.60
2022-08-21T11:33:56.906Z,16.40
2022-08-21T11:34:56.881Z,12.90
2022-08-21T11:35:56.921Z,24.20
2022-08-21T11:36:56.835Z,27.50
2022-08-21T11:37:56.855Z,24.90
2022-08-21T11:38:56.821Z,23.80
2022-08-21T11:39:56.894Z,21.00
2022-08-21T11:40:56.859Z,19.70
2022-08-21T11:41:56.790Z,18.20
2022-08-21T11:42:56.913Z,17.20
2022-08-21T11:43:56.813Z,16.00
2022-08-21T11:44:56.774Z,13.80
2022-08-21T11:45:56.833Z,14.70
2022-08-21T11:46:56.759Z,15.00
2022-08-21T11:47:56.733Z,15.40
2022-08-21T11:48:56.770Z,13.80
2022-08-21T11:49:56.745Z,15.80
2022-08-21T11:50:56.726Z,15.70
2022-08-21T11:51:56.673Z,14.40
2022-08-21T11:52:56.674Z,18.50
2022-08-21T11:53:56.700Z,12.60
2022-08-21T11:54:56.657Z,10.00
2022-08-21T11:55:56.665Z,12.80
2022-08-21T11:56:56.620Z,14.60
2022-08-21T11:57:56.630Z,16.50
2022-08-21T11:58:57.808Z,19.40
2022-08-21T11:59:56.591Z,21.30
2022-08-21T12:00:56.635Z,30.50
2022-08-21T12:01:56.616Z,38.60
2022-08-21T12:02:56.665Z,40.70
2022-08-21T12:03:56.559Z,38.70
2022-08-21T12:04:56.553Z,39.20
2022-08-21T12:05:56.596Z,41.00
2022-08-21T12:06:56.545Z,43.80
2022-08-21T12:08:00.819Z,48.40
2022-08-21T12:08:56.492Z,46.20
2022-08-21T12:09:56.467Z,53.30
2022-08-21T12:10:56.517Z,33.60
2022-08-21T12:11:56.479Z,58.50
2022-08-21T12:12:56.448Z,17.70
2022-08-21T12:13:56.453Z,21.90
2022-08-21T12:14:56.451Z,15.40
2022-08-21T12:15:56.471Z,10.20
2022-08-21T12:16:56.424Z,10.90
2022-08-21T12:17:56.376Z,13.40
2022-08-21T12:18:56.393Z,8.60
2022-08-21T12:19:56.382Z,7.30
2022-08-21T12:20:56.357Z,7.00
2022-08-21T12:21:56.348Z,8.70
2022-08-21T12:22:56.491Z,8.10
2022-08-21T12:23:56.319Z,9.60
2022-08-21T12:24:56.368Z,8.80
2022-08-21T12:25:56.299Z,8.80
2022-08-21T12:26:56.300Z,9.80
2022-08-21T12:27:56.283Z,8.40
2022-08-21T12:28:56.256Z,7.70
2022-08-21T12:29:56.299Z,8.60
2022-08-21T12:30:58.160Z,9.70
2022-08-21T12:31:56.237Z,7.70
2022-08-21T12:32:56.237Z,9.40
2022-08-21T12:33:56.223Z,8.70
2022-08-21T12:34:56.283Z,8.50
2022-08-21T12:35:56.195Z,7.80
2022-08-21T12:36:56.202Z,8.10
2022-08-21T12:37:56.157Z,8.60
2022-08-21T12:38:56.140Z,9.20
2022-08-21T12:39:56.224Z,8.60